createdAt,value
2023-03-02T00:01:04.450Z,97181.88
2023-03-02T00:03:31.942Z,97182.03
2023-03-02T00:05:58.420Z,97179.69
2023-03-02T00:08:24.898Z,97179.81
2023-03-02T00:10:51.379Z,97175.84
2023-03-02T00:13:17.842Z,97176.97
2023-03-02T00:15:44.325Z,97172.78
2023-03-02T00:18:10.850Z,97170.22
2023-03-02T00:20:37.376Z,97180.31
2023-03-02T00:23:03.812Z,97171.81
2023-03-02T00:25:52.283Z,97181.94
2023-03-02T00:28:18.789Z,97180.16
2023-03-02T00:30:45.227Z,97180.06
2023-03-02T00:33:11.718Z,97179.25
2023-03-02T00:35:41.427Z,97176.84
2023-03-02T00:38:08.307Z,97176.97
2023-03-02T00:40:35.155Z,97178.84
2023-03-02T00:43:01.629Z,97177.19
2023-03-02T00:45:28.072Z,97180.56
2023-03-02T00:47:54.570Z,97173.97
2023-03-02T00:50:21.029Z,97164.09
2023-03-02T00:52:47.476Z,97165.97
2023-03-02T00:55:13.994Z,97157.69
2023-03-02T00:57:40.461Z,97151.09
2023-03-02T01:00:07.231Z,97154.63
2023-03-02T01:02:33.822Z,97156.41
2023-03-02T01:05:00.325Z,97147.91
2023-03-02T01:07:28.572Z,97020.63
2023-03-02T01:09:55.201Z,97149.56
2023-03-02T01:12:21.679Z,97144.47
2023-03-02T01:14:48.402Z,97136.78
2023-03-02T01:17:14.889Z,97132.53
2023-03-02T01:19:41.489Z,97113.13
2023-03-02T01:22:08.053Z,97117.38
2023-03-02T01:24:34.527Z,97114.97
2023-03-02T01:27:01.011Z,97116.72
2023-03-02T01:29:27.475Z,97123.69
2023-03-02T01:31:54.321Z,97121.38
2023-03-02T01:34:20.941Z,97108.88
2023-03-02T01:36:47.417Z,97115.69
2023-03-02T01:39:16.961Z,97105.63
2023-03-02T01:41:43.948Z,97119.88
2023-03-02T01:44:29.227Z,97113.06
2023-03-02T01:46:55.684Z,97116.50
2023-03-02T01:49:22.421Z,97106.28
2023-03-02T01:51:48.975Z,97100.38
2023-03-02T01:54:17.382Z,97094.47
2023-03-02T01:56:44.232Z,97088.56
2023-03-02T01:59:12.054Z,97092.81
2023-03-02T02:01:39.733Z,97088.03
2023-03-02T02:04:06.202Z,97086.66
2023-03-02T02:06:35.175Z,97085.25
2023-03-02T02:09:01.776Z,97080.38
2023-03-02T02:11:28.248Z,97080.56
2023-03-02T02:13:55.954Z,97078.13
2023-03-02T02:16:22.426Z,97070.47
2023-03-02T02:18:48.948Z,97071.19
2023-03-02T02:21:15.404Z,97071.94
2023-03-02T02:24:00.659Z,97068.41
2023-03-02T02:26:47.423Z,97062.53
2023-03-02T02:29:14.867Z,97064.09
2023-03-02T02:31:48.618Z,97073.31
2023-03-02T02:34:16.621Z,97069.06
2023-03-02T02:36:44.049Z,97073.19
2023-03-02T02:39:11.880Z,97069.84
2023-03-02T02:41:38.561Z,97069.84
2023-03-02T02:44:05.133Z,97068.31
2023-03-02T02:46:31.922Z,97069.31
2023-03-02T02:48:58.502Z,97072.78
2023-03-02T02:51:26.523Z,97066.88
2023-03-02T02:54:00.142Z,97076.25
2023-03-02T02:56:33.963Z,97063.63
2023-03-02T02:59:07.996Z,97067.97
2023-03-02T03:01:34.550Z,97061.25
2023-03-02T03:04:01.992Z,97058.91
2023-03-02T03:06:30.689Z,97061.59
2023-03-02T03:08:58.268Z,97060.91
2023-03-02T03:11:26.702Z,97058.47
2023-03-02T03:13:58.453Z,97064.47
2023-03-02T03:16:25.005Z,97057.97
2023-03-02T03:18:51.499Z,97055.53
2023-03-02T03:21:18.497Z,97060.69
2023-03-02T03:23:45.123Z,97058.91
2023-03-02T03:26:11.594Z,97059.69
2023-03-02T03:28:38.093Z,97053.13
2023-03-02T03:31:04.690Z,97054.06
2023-03-02T03:33:31.229Z,97052.50
2023-03-02T03:35:57.836Z,97057.69
2023-03-02T03:38:24.525Z,97057.69
2023-03-02T03:40:50.966Z,97049.19
2023-03-02T03:43:17.446Z,97049.97
2023-03-02T03:45:43.877Z,97054.19
2023-03-02T03:48:10.316Z,97049.19
2023-03-02T03:50:36.793Z,97052.69
2023-03-02T03:53:03.980Z,97056.94
2023-03-02T03:55:31.250Z,97050.03
2023-03-02T03:57:57.813Z,97044.88
2023-03-02T04:00:24.346Z,97052.41
2023-03-02T04:02:50.980Z,97054.88
2023-03-02T04:05:17.597Z,97054.78
2023-03-02T04:07:44.087Z,97054.66
2023-03-02T04:10:11.395Z,97052.09
2023-03-02T04:12:38.408Z,97054.66
2023-03-02T04:15:05.680Z,97051.34
2023-03-02T04:17:32.171Z,97053.13
2023-03-02T04:19:59.595Z,97047.28
2023-03-02T04:22:26.406Z,97052.41
2023-03-02T04:24:52.905Z,97054.13
2023-03-02T04:27:19.432Z,97049.97
2023-03-02T04:29:46.362Z,97049.97
2023-03-02T04:32:14.894Z,97044.06
2023-03-02T04:34:41.717Z,97050.09
2023-03-02T04:37:08.186Z,97041.72
2023-03-02T04:39:34.707Z,97041.72
2023-03-02T04:42:01.304Z,97041.81
2023-03-02T04:44:27.779Z,97041.22
2023-03-02T04:46:54.339Z,97036.19
2023-03-02T04:49:20.852Z,97040.53
2023-03-02T04:51:47.947Z,97035.75
2023-03-02T04:54:15.613Z,97037.69
2023-03-02T04:56:42.202Z,97045.47
2023-03-02T04:59:08.694Z,97047.22
2023-03-02T05:01:35.222Z,97048.03
2023-03-02T05:04:03.019Z,97048.03
2023-03-02T05:06:29.733Z,97048.84
2023-03-02T05:08:59.847Z,97050.38
2023-03-02T05:11:26.380Z,97052.00
2023-03-02T05:13:53.735Z,97046.81
2023-03-02T05:16:20.434Z,97051.94
2023-03-02T05:18:47.174Z,97049.50
2023-03-02T05:21:14.543Z,97038.59
2023-03-02T05:23:41.328Z,97038.88
2023-03-02T05:26:07.874Z,97036.47
2023-03-02T05:28:34.385Z,97042.47
2023-03-02T05:31:01.110Z,97036.53
2023-03-02T05:33:27.750Z,97046.53
2023-03-02T05:35:54.295Z,97043.97
2023-03-02T05:38:21.103Z,97039.75
2023-03-02T05:40:47.741Z,97046.34
2023-03-02T05:43:15.768Z,97044.47
2023-03-02T05:45:42.420Z,97046.91
2023-03-02T05:48:08.946Z,97046.91
2023-03-02T05:50:35.525Z,97057.00
2023-03-02T05:53:02.646Z,97053.53
2023-03-02T05:55:29.252Z,97048.34
2023-03-02T05:57:55.771Z,97050.81
2023-03-02T06:00:22.418Z,97062.47
2023-03-02T06:02:49.101Z,97063.25
2023-03-02T06:05:16.670Z,97058.94
2023-03-02T06:07:43.124Z,97058.00
2023-03-02T06:10:10.207Z,97057.09
2023-03-02T06:12:36.685Z,97062.81
2023-03-02T06:15:04.017Z,97057.69
2023-03-02T06:17:30.540Z,97060.97
2023-03-02T06:19:57.027Z,97052.41
2023-03-02T06:22:23.471Z,97061.50
2023-03-02T06:24:49.921Z,97055.44
2023-03-02T06:27:16.385Z,97061.38
2023-03-02T06:29:42.842Z,97061.44
2023-03-02T06:32:11.479Z,97057.19
2023-03-02T06:34:38.045Z,97062.09
2023-03-02T06:37:04.506Z,97062.75
2023-03-02T06:39:31.021Z,97071.94
2023-03-02T06:41:58.795Z,97065.91
2023-03-02T06:44:25.313Z,97059.06
2023-03-02T06:46:51.801Z,97064.03
2023-03-02T06:49:18.273Z,97065.63
2023-03-02T06:51:44.736Z,97068.88
2023-03-02T06:54:11.222Z,97067.06
2023-03-02T06:56:40.017Z,97072.91
2023-03-02T06:59:08.017Z,97068.56
2023-03-02T07:01:36.512Z,97069.25
2023-03-02T07:04:03.471Z,97066.53
2023-03-02T07:06:30.021Z,97074.09
2023-03-02T07:08:56.486Z,97067.44
2023-03-02T07:11:23.008Z,97065.72
2023-03-02T07:13:49.829Z,97062.19
2023-03-02T07:16:16.428Z,97063.66
2023-03-02T07:18:42.944Z,97071.06
2023-03-02T07:21:09.662Z,97064.06
2023-03-02T07:23:36.226Z,97060.47
2023-03-02T07:26:02.688Z,97057.81
2023-03-02T07:28:29.165Z,97056.13
2023-03-02T07:30:55.872Z,97056.78
2023-03-02T07:33:22.613Z,97055.41
2023-03-02T07:35:49.156Z,97053.81
2023-03-02T07:38:15.734Z,97058.91
2023-03-02T07:40:42.559Z,97054.47
2023-03-02T07:43:09.273Z,97053.53
2023-03-02T07:45:35.816Z,97050.69
2023-03-02T07:48:02.313Z,97051.09
2023-03-02T07:50:28.857Z,97048.44
2023-03-02T07:52:55.356Z,97051.91
2023-03-02T07:55:21.925Z,97049.34
2023-03-02T07:57:48.396Z,97049.75
2023-03-02T08:00:15.162Z,97047.66
2023-03-02T08:02:41.945Z,97041.16
2023-03-02T08:05:08.800Z,97046.53
2023-03-02T08:07:35.484Z,97048.13
2023-03-02T08:10:02.106Z,97042.09
2023-03-02T08:12:28.707Z,97049.09
2023-03-02T08:14:55.306Z,97038.59
2023-03-02T08:17:21.785Z,97046.72
2023-03-02T08:19:48.304Z,97050.16
2023-03-02T08:22:14.755Z,97054.03
2023-03-02T08:24:41.979Z,97049.88
2023-03-02T08:27:08.955Z,97044.25
2023-03-02T08:29:35.434Z,97043.84
2023-03-02T08:32:02.075Z,97048.47
2023-03-02T08:34:28.670Z,97044.06
2023-03-02T08:36:55.220Z,97047.22
2023-03-02T08:39:24.598Z,97051.97
2023-03-02T08:41:51.582Z,97043.06
2023-03-02T08:44:18.231Z,97041.44
2023-03-02T08:46:44.667Z,97035.78
2023-03-02T08:49:11.119Z,97032.03
2023-03-02T08:51:37.614Z,97030.06
2023-03-02T08:54:04.210Z,97037.78
2023-03-02T08:56:31.736Z,97027.63
2023-03-02T08:58:59.380Z,97032.34
2023-03-02T09:01:29.905Z,97027.75
2023-03-02T09:03:57.619Z,97031.31
2023-03-02T09:06:24.180Z,97035.75
2023-03-02T09:08:50.815Z,97038.56
2023-03-02T09:11:17.388Z,97032.81
2023-03-02T09:13:43.912Z,97032.25
2023-03-02T09:16:10.468Z,97030.75
2023-03-02T09:18:36.954Z,97021.44
2023-03-02T09:21:03.567Z,97023.22
2023-03-02T09:23:30.353Z,97026.59
2023-03-02T09:25:56.825Z,97021.25
2023-03-02T09:28:23.289Z,97023.69
2023-03-02T09:30:53.682Z,97016.53
2023-03-02T09:33:20.333Z,97020.22
2023-03-02T09:35:47.728Z,97017.94
2023-03-02T09:38:17.106Z,97012.69
2023-03-02T09:41:03.946Z,97010.72
2023-03-02T09:43:36.652Z,97004.97
2023-03-02T09:46:20.896Z,97004.50
2023-03-02T09:49:07.652Z,96999.16
2023-03-02T09:51:34.731Z,96993.41
2023-03-02T09:54:04.705Z,96991.91
2023-03-02T09:56:31.491Z,96991.31
2023-03-02T09:59:00.117Z,96992.03
2023-03-02T10:01:32.895Z,96995.78
2023-03-02T10:04:06.081Z,96995.91
2023-03-02T10:06:32.892Z,96989.34
2023-03-02T10:08:59.724Z,96987.59
2023-03-02T10:11:35.300Z,96981.63
2023-03-02T10:14:15.605Z,96980.31
2023-03-02T10:16:42.096Z,96981.59
2023-03-02T10:19:13.965Z,96974.91
2023-03-02T10:21:44.540Z,96968.69
2023-03-02T10:24:11.087Z,96964.34
2023-03-02T10:26:38.910Z,96973.50
2023-03-02T10:29:11.625Z,96972.69
2023-03-02T10:31:39.107Z,96963.19
2023-03-02T10:34:13.904Z,96954.50
2023-03-02T10:36:41.301Z,96957.41
2023-03-02T10:39:10.385Z,96945.91
2023-03-02T10:41:41.195Z,96952.06
2023-03-02T10:44:13.900Z,96946.28
2023-03-02T10:46:44.266Z,96946.72
2023-03-02T10:49:29.601Z,96939.56
2023-03-02T10:51:57.326Z,96944.22
2023-03-02T10:54:34.791Z,96937.63
2023-03-02T10:57:05.401Z,96939.69
2023-03-02T10:59:33.672Z,96934.97
2023-03-02T11:02:01.642Z,96928.50
2023-03-02T11:04:28.431Z,96926.34
2023-03-02T11:06:54.945Z,96932.63
2023-03-02T11:09:21.529Z,96928.03
2023-03-02T11:11:53.048Z,96929.28
2023-03-02T11:14:19.614Z,96921.03
2023-03-02T11:16:47.366Z,96917.78
2023-03-02T11:19:24.686Z,96919.44
2023-03-02T11:21:58.732Z,96918.09
2023-03-02T11:24:39.567Z,96918.66
2023-03-02T11:27:25.761Z,96917.19
2023-03-02T11:29:59.336Z,96920.34
2023-03-02T11:32:29.275Z,96915.72
2023-03-02T11:35:00.741Z,96910.28
2023-03-02T11:37:35.143Z,96902.97
2023-03-02T11:40:06.841Z,96905.03
2023-03-02T11:42:37.513Z,96899.44
2023-03-02T11:45:08.947Z,96898.75
2023-03-02T11:47:35.439Z,96899.31
2023-03-02T11:50:05.267Z,96896.47
2023-03-02T11:52:32.615Z,96892.13
2023-03-02T11:55:06.687Z,96894.25
2023-03-02T11:57:40.463Z,96900.28
2023-03-02T12:00:11.846Z,96884.19
2023-03-02T12:02:38.297Z,96883.09
2023-03-02T12:05:05.802Z,96882.03
2023-03-02T12:07:32.310Z,96883.91
2023-03-02T12:09:58.722Z,96879.41
2023-03-02T12:12:35.711Z,96877.13
2023-03-02T12:15:02.238Z,96876.41
2023-03-02T12:17:30.079Z,96874.63
2023-03-02T12:20:08.916Z,96877.38
2023-03-02T12:22:35.548Z,96873.56
2023-03-02T12:25:04.013Z,96875.19
2023-03-02T12:27:34.826Z,96869.09
2023-03-02T12:30:23.785Z,96864.88
2023-03-02T12:33:13.694Z,96855.47
2023-03-02T12:35:40.195Z,96856.28
2023-03-02T12:38:08.329Z,96854.25
2023-03-02T12:40:38.025Z,96856.81
2023-03-02T12:43:22.906Z,96851.25
2023-03-02T12:45:58.596Z,96845.84
2023-03-02T12:48:28.107Z,96850.50
2023-03-02T12:50:56.248Z,96842.34
2023-03-02T12:53:22.813Z,96843.59
2023-03-02T12:55:49.384Z,96844.78
2023-03-02T12:58:20.161Z,96761.50
2023-03-02T13:00:53.914Z,96843.72
2023-03-02T13:03:20.439Z,96836.63
2023-03-02T13:05:49.880Z,96833.38
2023-03-02T13:08:17.630Z,96832.28
2023-03-02T13:10:48.300Z,96824.13
2023-03-02T13:13:14.904Z,96831.19
2023-03-02T13:15:51.238Z,96829.03
2023-03-02T13:18:18.116Z,96825.22
2023-03-02T13:20:44.929Z,96823.97
2023-03-02T13:23:15.000Z,96823.59
2023-03-02T13:25:52.202Z,96824.94
2023-03-02T13:28:22.623Z,96815.97
2023-03-02T13:30:51.132Z,96808.59
2023-03-02T13:33:24.138Z,96809.00
2023-03-02T13:35:50.630Z,96808.19
2023-03-02T13:38:17.649Z,96800.69
2023-03-02T13:40:48.570Z,96803.66
2023-03-02T13:43:22.200Z,96805.97
2023-03-02T13:46:15.108Z,96802.28
2023-03-02T13:48:41.610Z,96797.94
2023-03-02T13:51:17.950Z,96793.63
2023-03-02T13:53:55.183Z,96793.09
2023-03-02T13:59:49.719Z,96789.50
2023-03-02T14:02:23.649Z,96787.75
2023-03-02T14:04:50.236Z,96782.72
2023-03-02T14:07:17.730Z,96779.56
2023-03-02T14:12:34.337Z,96776.69
2023-03-02T14:15:01.330Z,96772.19
2023-03-02T14:17:27.884Z,96766.19
2023-03-02T14:19:55.387Z,96765.50
2023-03-02T14:22:22.305Z,96772.38
2023-03-02T14:24:48.945Z,96764.63
2023-03-02T14:27:16.151Z,96767.88
2023-03-02T14:29:43.351Z,96760.72
2023-03-02T14:32:10.545Z,96762.72
2023-03-02T14:34:37.413Z,96756.31
2023-03-02T14:37:04.871Z,96746.66
2023-03-02T14:39:35.970Z,96755.78
2023-03-02T14:42:05.616Z,96753.97
2023-03-02T14:44:32.348Z,96756.03
2023-03-02T14:46:59.207Z,96751.25
2023-03-02T14:49:26.121Z,96749.63
2023-03-02T14:51:55.844Z,96750.88
2023-03-02T14:54:22.364Z,96760.94
2023-03-02T14:56:50.460Z,96744.75
2023-03-02T14:59:17.706Z,96741.50
2023-03-02T15:01:47.282Z,96747.31
2023-03-02T15:04:13.848Z,96745.56
2023-03-02T15:06:40.826Z,96743.25
2023-03-02T15:09:08.158Z,96740.53
2023-03-02T15:11:35.159Z,96739.88
2023-03-02T15:14:01.912Z,96741.50
2023-03-02T15:16:28.620Z,96737.03
2023-03-02T15:18:56.740Z,96742.34
2023-03-02T15:21:24.380Z,96737.72
2023-03-02T15:23:51.116Z,96733.47
2023-03-02T15:26:17.687Z,96744.50
2023-03-02T15:28:45.737Z,96744.06
2023-03-02T15:31:14.315Z,96744.59
2023-03-02T15:33:41.445Z,96752.44
2023-03-02T15:36:08.089Z,96746.69
2023-03-02T15:38:35.781Z,96744.41
2023-03-02T15:41:12.658Z,96748.97
2023-03-02T15:43:39.282Z,96748.69
2023-03-02T15:46:06.167Z,96740.50
2023-03-02T15:48:32.783Z,96744.84
2023-03-02T15:50:59.822Z,96742.66
2023-03-02T15:53:26.597Z,96742.22
2023-03-02T15:55:53.146Z,96739.63
2023-03-02T15:58:19.682Z,96742.81
2023-03-02T16:00:46.183Z,96741.13
2023-03-02T16:03:14.693Z,96739.31
2023-03-02T16:05:41.425Z,96736.78
2023-03-02T16:08:07.937Z,96744.56
2023-03-02T16:10:36.111Z,96739.59
2023-03-02T16:13:03.353Z,96743.38
2023-03-02T16:15:30.146Z,96749.16
2023-03-02T16:17:56.773Z,96748.16
2023-03-02T16:20:23.405Z,96753.13
2023-03-02T16:22:49.896Z,96749.16
2023-03-02T16:25:16.459Z,96754.63
2023-03-02T16:27:47.428Z,96743.19
2023-03-02T16:30:15.124Z,96747.84
2023-03-02T16:32:41.636Z,96750.75
2023-03-02T16:35:08.735Z,96758.66
2023-03-02T16:37:35.252Z,96753.47
2023-03-02T16:40:01.895Z,96745.03
2023-03-02T16:42:30.382Z,96748.59
2023-03-02T16:44:56.922Z,96744.56
2023-03-02T16:47:23.547Z,96746.25
2023-03-02T16:49:50.052Z,96758.34
2023-03-02T16:52:17.646Z,96749.63
2023-03-02T16:54:44.964Z,96758.91
2023-03-02T16:57:11.445Z,96763.13
2023-03-02T16:59:37.918Z,96762.97
2023-03-02T17:02:04.448Z,96772.22
2023-03-02T17:04:34.789Z,96770.06
2023-03-02T17:07:01.673Z,96773.44
2023-03-02T17:09:28.419Z,96767.88
2023-03-02T17:11:55.210Z,96773.97
2023-03-02T17:14:21.721Z,96775.28
2023-03-02T17:16:48.348Z,96781.50
2023-03-02T17:19:14.779Z,96780.16
2023-03-02T17:21:41.279Z,96784.84
2023-03-02T17:24:07.835Z,96775.75
2023-03-02T17:26:34.386Z,96780.50
2023-03-02T17:29:01.026Z,96783.66
2023-03-02T17:31:27.532Z,96773.69
2023-03-02T17:33:54.090Z,96787.69
2023-03-02T17:36:20.570Z,96788.88
2023-03-02T17:38:47.530Z,96786.69
2023-03-02T17:41:14.030Z,96792.09
2023-03-02T17:43:40.887Z,96793.00
2023-03-02T17:46:08.404Z,96786.97
2023-03-02T17:48:34.953Z,96789.72
2023-03-02T17:51:01.469Z,96788.16
2023-03-02T17:53:28.378Z,96794.84
2023-03-02T17:55:54.916Z,96785.50
2023-03-02T17:58:21.472Z,96787.25
2023-03-02T18:00:47.983Z,96787.63
2023-03-02T18:03:14.546Z,96786.25
2023-03-02T18:05:41.025Z,96792.50
2023-03-02T18:08:07.513Z,96780.06
2023-03-02T18:10:34.030Z,96793.28
2023-03-02T18:13:00.529Z,96792.13
2023-03-02T18:15:29.155Z,96793.81
2023-03-02T18:17:55.644Z,96791.06
2023-03-02T18:20:22.173Z,96795.72
2023-03-02T18:22:48.712Z,96795.25
2023-03-02T18:25:15.308Z,96787.03
2023-03-02T18:27:41.829Z,96794.06
2023-03-02T18:30:08.724Z,96794.44
2023-03-02T18:32:35.533Z,96787.94
2023-03-02T18:35:02.006Z,96791.56
2023-03-02T18:37:28.571Z,96796.34
2023-03-02T18:39:55.244Z,96793.25
2023-03-02T18:42:22.567Z,96804.34
2023-03-02T18:44:49.125Z,96792.41
2023-03-02T18:47:16.119Z,96795.63
2023-03-02T18:49:42.793Z,96800.81
2023-03-02T18:52:09.987Z,96791.84
2023-03-02T18:54:36.463Z,96791.56
2023-03-02T18:57:03.654Z,96791.81
2023-03-02T18:59:30.269Z,96793.06
2023-03-02T19:01:57.576Z,96793.16
2023-03-02T19:04:26.569Z,96791.34
2023-03-02T19:06:54.342Z,96794.69
2023-03-02T19:09:21.521Z,96792.97
2023-03-02T19:11:48.081Z,96790.25
2023-03-02T19:14:14.831Z,96793.53
2023-03-02T19:16:41.334Z,96793.06
2023-03-02T19:19:07.866Z,96790.75
2023-03-02T19:21:34.407Z,96782.44
2023-03-02T19:24:01.862Z,96787.81
2023-03-02T19:26:28.470Z,96790.44
2023-03-02T19:28:55.596Z,96787.06
2023-03-02T19:31:22.141Z,96791.34
2023-03-02T19:37:17.615Z,96787.56
2023-03-02T19:39:44.150Z,96781.81
2023-03-02T19:42:10.863Z,96793.06
2023-03-02T19:44:37.344Z,96792.44
2023-03-02T19:47:04.641Z,96792.81
2023-03-02T19:49:31.389Z,96795.63
2023-03-02T19:51:59.095Z,96795.69
2023-03-02T19:54:26.019Z,96793.16
2023-03-02T19:56:53.995Z,96793.31
2023-03-02T19:59:22.033Z,96789.03
2023-03-02T20:01:49.573Z,96789.19
2023-03-02T20:04:16.431Z,96788.31
2023-03-02T20:06:42.928Z,96788.31
2023-03-02T20:09:09.722Z,96781.50
2023-03-02T20:11:36.312Z,96782.22
2023-03-02T20:14:02.921Z,96784.63
2023-03-02T20:16:30.159Z,96791.34
2023-03-02T20:18:58.220Z,96791.28
2023-03-02T20:21:27.560Z,96800.72
2023-03-02T20:23:54.478Z,96788.13
2023-03-02T20:26:21.327Z,96806.16
2023-03-02T20:28:48.056Z,96801.38
2023-03-02T20:31:14.827Z,96805.00
2023-03-02T20:33:46.596Z,96800.94
2023-03-02T20:36:13.578Z,96795.25
2023-03-02T20:38:41.806Z,96792.91
2023-03-02T20:41:08.287Z,96789.59
2023-03-02T20:43:34.852Z,96793.22
2023-03-02T20:46:01.702Z,96787.44
2023-03-02T20:48:28.350Z,96799.53
2023-03-02T20:50:54.942Z,96786.78
2023-03-02T20:53:21.554Z,96783.50
2023-03-02T20:55:48.251Z,96794.44
2023-03-02T20:58:14.685Z,96779.22
2023-03-02T21:00:41.494Z,61885.03
2023-03-02T21:03:08.494Z,60029.00
2023-03-02T21:05:35.394Z,60029.00
2023-03-02T21:08:02.065Z,60029.00
2023-03-02T21:10:32.562Z,60029.00
2023-03-02T21:12:59.168Z,60029.00
2023-03-02T21:15:27.204Z,60029.00
2023-03-02T21:17:57.276Z,60029.00
2023-03-02T21:20:24.133Z,60029.00
2023-03-02T21:22:50.692Z,60029.00
2023-03-02T21:25:17.423Z,60029.00
2023-03-02T21:27:44.265Z,60029.00
2023-03-02T21:30:14.542Z,60029.00
2023-03-02T21:32:45.704Z,60029.00
2023-03-02T21:35:15.821Z,60029.00
2023-03-02T21:37:42.477Z,60029.00
2023-03-02T21:40:31.354Z,60029.00
2023-03-02T21:43:00.608Z,60029.00
2023-03-02T21:45:27.186Z,60029.00
2023-03-02T21:47:53.681Z,60029.00
2023-03-02T21:50:24.413Z,60029.00
2023-03-02T21:52:50.890Z,60029.00
2023-03-02T21:55:17.618Z,60029.00
2023-03-02T21:57:44.133Z,60029.00
2023-03-02T22:00:12.511Z,60029.00
2023-03-02T22:02:39.072Z,60029.00
2023-03-02T22:05:05.795Z,60029.00
2023-03-02T22:07:32.310Z,60029.00
2023-03-02T22:09:59.026Z,60029.00
2023-03-02T22:12:25.482Z,60029.00
2023-03-02T22:14:51.941Z,60029.00
2023-03-02T22:17:19.195Z,60029.00
2023-03-02T22:19:45.750Z,60029.00
2023-03-02T22:22:26.013Z,60029.00
2023-03-02T22:24:52.879Z,60029.00
2023-03-02T22:27:22.059Z,60029.00
2023-03-02T22:29:48.772Z,60029.00
2023-03-02T22:32:17.439Z,60029.00
2023-03-02T22:34:44.359Z,60029.00
2023-03-02T22:37:11.915Z,60029.00
2023-03-02T22:39:40.514Z,60029.00
2023-03-02T22:42:13.587Z,60029.00
2023-03-02T22:44:40.101Z,60029.00
2023-03-02T22:47:12.483Z,60029.00
2023-03-02T22:49:38.976Z,60029.00
2023-03-02T22:52:11.486Z,60029.00
2023-03-02T22:54:37.974Z,60029.00
2023-03-02T22:57:08.316Z,60029.00
2023-03-02T22:59:36.095Z,60029.00
2023-03-02T23:02:02.841Z,60029.00
2023-03-02T23:04:35.309Z,60029.00
2023-03-02T23:07:02.857Z,60029.00
2023-03-02T23:09:30.516Z,60029.00
2023-03-02T23:11:57.876Z,60029.00
2023-03-02T23:14:45.100Z,60029.00
2023-03-02T23:17:12.371Z,60029.00
2023-03-02T23:19:38.807Z,60029.00
2023-03-02T23:22:05.306Z,60029.00
2023-03-02T23:24:31.770Z,60029.00
2023-03-02T23:26:58.249Z,60029.00
2023-03-02T23:29:24.723Z,60029.00
2023-03-02T23:31:51.250Z,60029.00
2023-03-02T23:34:17.791Z,60029.00
2023-03-02T23:36:44.267Z,60029.00
2023-03-02T23:39:10.779Z,60029.00
2023-03-02T23:41:37.448Z,60029.00
2023-03-02T23:44:05.183Z,60029.00
2023-03-02T23:46:31.719Z,60029.00
2023-03-02T23:48:58.249Z,60029.00
2023-03-02T23:51:25.554Z,60029.00
2023-03-02T23:53:55.467Z,60029.00
2023-03-02T23:56:22.030Z,60029.00
2023-03-02T23:58:57.475Z,60029.00
